Corpus Christi Jet Center

SKYE FBO - AIRPORT SERVICES
McCampbell-Porter Airport KTFP
Call Us 24/7: (361) 758-2000
KTFP - McCampbell-Porter Airport
Updated: Tue, 13-Nov-2018 8:55pm PST
Clear
Clear
 Wind from NNW
Wind: NNW 7 mph , 11 km/h
Temperature: 37°F , 3°C
Wind Chill: 32°F , 0°C
Dew Point: 32°F , 0°C
Humidity: 81%
Barometer: 30.56 inHg , 1034.9 hPa
Clouds: Clear
Visibility: 10 miles , 16 km
2018/11/14 04:55 KTFP 140455Z AUTO 34006KT 10SM CLR 03/00 A3056 RMK AO2 T00270004 PNO

Location

Skye FBO - Airport Services
McCampbell-Porter Airport KTFP
3141 FM 3512
Aransas Pass, TX 78336-9728
(361) 758-2000
2 miles N of Ingleside, TX
Only 15 min from downtown Corpus Christi 2 miles N of Ingleside, Texas and only 15 minutes from downtown Corpus Christi, Texas

(click to enlarge)

Skyview Aviation BBB Business Review

Please Check Out Our Facebook Page For The Latest News

Find SkyeFBO on Facebook